Chahbahar, Iran
Current Conditions -  °F | °C
As of 9:00 AM on Saturday 01 Nov 2014 (Local Time) from OIZI Reporting Station
Clear Clear  
Wind Chill: 82°   Ceiling: Unl
Heat Index: 82°   Visibility: 6mi
Dew Point: 37°   Wind: 0mph
Humidity: 20%   Direction: NA
Pressure: 30.06"   Gusts: NA
Location:  25.28°N, 60.62°E
Report Text: OIZI 010600Z 00000KT CAVOK 28/03 Q1018
Loading
Personal Weather Stations






























Interactive Weather Map New forecast layout! Learn more

10-Day Weather Forecast

Advertisements
Track Severe Weather on mobile